createdAt,value
2019-06-29T00:00:02.197Z,0.60
2019-06-29T00:02:35.427Z,0.60
2019-06-29T00:05:08.591Z,0.53
2019-06-29T00:07:41.747Z,0.83
2019-06-29T00:10:14.977Z,0.50
2019-06-29T00:12:48.166Z,0.80
2019-06-29T00:15:21.299Z,0.60
2019-06-29T00:17:54.476Z,0.70
2019-06-29T00:20:27.522Z,0.73
2019-06-29T00:23:00.697Z,0.70
2019-06-29T00:25:36.701Z,0.80
2019-06-29T00:28:10.088Z,0.80
2019-06-29T00:30:43.014Z,0.57
2019-06-29T00:33:16.552Z,0.60
2019-06-29T00:35:49.673Z,0.63
2019-06-29T00:38:22.673Z,0.70
2019-06-29T00:40:58.019Z,0.80
2019-06-29T00:43:31.169Z,0.80
2019-06-29T00:46:04.187Z,0.80
2019-06-29T00:48:49.543Z,0.63
2019-06-29T00:51:15.207Z,0.73
2019-06-29T00:53:48.467Z,0.73
2019-06-29T00:56:21.530Z,0.70
2019-06-29T00:58:54.933Z,0.60
2019-06-29T01:01:28.374Z,0.60
2019-06-29T01:04:02.417Z,0.70
2019-06-29T01:06:35.483Z,0.70
2019-06-29T01:09:09.172Z,0.70
2019-06-29T01:11:42.452Z,0.80
2019-06-29T01:14:15.826Z,1.10
2019-06-29T01:16:48.923Z,0.83
2019-06-29T01:19:22.362Z,0.70
2019-06-29T01:21:55.633Z,0.87
2019-06-29T01:24:42.453Z,0.90
2019-06-29T01:27:03.750Z,1.10
2019-06-29T01:29:39.870Z,0.70
2019-06-29T01:32:15.388Z,0.90
2019-06-29T01:34:49.391Z,1.00
2019-06-29T01:37:22.646Z,0.93
2019-06-29T01:39:57.595Z,0.80
2019-06-29T01:42:41.757Z,0.80
2019-06-29T01:45:31.619Z,0.80
2019-06-29T01:48:04.858Z,0.90
2019-06-29T01:50:37.964Z,0.90
2019-06-29T01:53:10.895Z,1.17
2019-06-29T01:55:43.989Z,0.90
2019-06-29T01:58:17.135Z,0.90
2019-06-29T02:00:50.302Z,0.90
2019-06-29T02:03:23.472Z,1.10
2019-06-29T02:05:56.603Z,0.93
2019-06-29T02:08:31.514Z,0.83
2019-06-29T02:11:04.800Z,0.80
2019-06-29T02:13:37.830Z,0.83
2019-06-29T02:16:11.015Z,1.20
2019-06-29T02:18:44.142Z,0.90
2019-06-29T02:21:17.243Z,0.70
2019-06-29T02:23:50.322Z,0.90
2019-06-29T02:26:23.427Z,0.90
2019-06-29T02:28:56.503Z,0.80
2019-06-29T02:31:29.601Z,0.70
2019-06-29T02:34:03.104Z,0.83
2019-06-29T02:36:36.272Z,0.90
2019-06-29T02:39:09.793Z,0.90
2019-06-29T02:41:43.026Z,0.80
2019-06-29T02:44:16.215Z,0.90
2019-06-29T02:46:49.452Z,1.00
2019-06-29T02:49:22.490Z,0.87
2019-06-29T02:51:55.657Z,0.80
2019-06-29T02:54:28.646Z,0.70
2019-06-29T02:57:01.755Z,0.93
2019-06-29T02:59:34.788Z,0.90
2019-06-29T03:02:08.450Z,1.07
2019-06-29T03:04:41.452Z,1.20
2019-06-29T03:07:14.503Z,1.23
2019-06-29T03:09:50.454Z,1.33
2019-06-29T03:12:23.765Z,1.50
2019-06-29T03:14:56.832Z,1.30
2019-06-29T03:17:30.001Z,1.30
2019-06-29T03:20:03.136Z,1.50
2019-06-29T03:22:36.303Z,1.00
2019-06-29T03:25:10.269Z,1.80
2019-06-29T03:27:43.861Z,1.93
2019-06-29T03:30:18.256Z,1.83
2019-06-29T03:32:51.522Z,1.57
2019-06-29T03:35:25.205Z,1.60
2019-06-29T03:40:54.775Z,1.47
2019-06-29T03:43:27.976Z,1.60
2019-06-29T03:46:01.238Z,1.33
2019-06-29T03:48:34.300Z,1.47
2019-06-29T03:51:08.657Z,1.43
2019-06-29T03:53:41.782Z,1.80
2019-06-29T03:56:14.944Z,1.40
2019-06-29T03:58:48.118Z,1.50
2019-06-29T04:01:23.165Z,1.57
2019-06-29T04:03:59.724Z,1.23
2019-06-29T04:06:42.752Z,1.17
2019-06-29T04:09:45.120Z,1.20
2019-06-29T04:12:30.559Z,1.40
2019-06-29T04:15:13.502Z,1.10
2019-06-29T04:17:51.524Z,1.20
2019-06-29T04:20:40.246Z,1.17
2019-06-29T04:23:19.585Z,0.90
2019-06-29T04:25:59.724Z,1.27
2019-06-29T04:28:40.859Z,1.30
2019-06-29T04:31:49.530Z,1.27
2019-06-29T04:34:42.183Z,1.17
2019-06-29T04:37:42.175Z,1.27
2019-06-29T04:40:24.751Z,1.40
2019-06-29T04:43:15.857Z,1.50
2019-06-29T04:45:49.192Z,1.30
2019-06-29T04:48:28.567Z,1.20
2019-06-29T04:51:02.876Z,1.13
2019-06-29T04:53:36.250Z,1.30
2019-06-29T04:56:09.599Z,1.40
2019-06-29T04:58:47.991Z,4.80
2019-06-29T05:01:22.506Z,1.60
2019-06-29T05:04:07.000Z,2.07
2019-06-29T05:06:42.737Z,1.43
2019-06-29T05:09:17.951Z,1.87
2019-06-29T05:11:50.885Z,1.43
2019-06-29T05:14:26.390Z,1.40
2019-06-29T05:17:07.496Z,1.70
2019-06-29T05:19:55.737Z,1.50
2019-06-29T05:22:30.562Z,1.70
2019-06-29T05:25:04.625Z,1.73
2019-06-29T05:27:37.850Z,1.80
2019-06-29T05:30:11.543Z,2.10
2019-06-29T05:32:44.729Z,1.83
2019-06-29T05:35:17.889Z,2.03
2019-06-29T05:37:51.451Z,1.73
2019-06-29T05:40:24.920Z,1.70
2019-06-29T05:43:04.294Z,1.60
2019-06-29T05:45:39.894Z,1.93
2019-06-29T05:48:20.551Z,1.60
2019-06-29T05:50:57.506Z,1.80
2019-06-29T05:53:32.527Z,1.97
2019-06-29T05:56:17.404Z,1.73
2019-06-29T05:58:50.721Z,2.13
2019-06-29T06:01:26.312Z,1.80
2019-06-29T06:03:59.450Z,1.87
2019-06-29T06:06:32.709Z,2.10
2019-06-29T06:09:07.221Z,1.97
2019-06-29T06:11:40.260Z,1.90
2019-06-29T06:14:13.173Z,1.80
2019-06-29T06:16:46.640Z,1.73
2019-06-29T06:19:19.953Z,1.70
2019-06-29T06:21:53.398Z,1.77
2019-06-29T06:24:26.991Z,1.93
2019-06-29T06:27:00.231Z,1.90
2019-06-29T06:29:33.777Z,2.27
2019-06-29T06:32:07.180Z,2.23
2019-06-29T06:34:40.223Z,2.03
2019-06-29T06:37:13.368Z,1.93
2019-06-29T06:39:47.921Z,2.40
2019-06-29T06:42:21.309Z,1.97
2019-06-29T06:44:54.290Z,2.00
2019-06-29T06:47:27.399Z,1.93
2019-06-29T06:50:00.380Z,1.80
2019-06-29T06:52:33.736Z,2.30
2019-06-29T06:55:07.320Z,1.97
2019-06-29T06:57:49.250Z,1.83
2019-06-29T07:00:17.037Z,2.30
2019-06-29T07:02:50.339Z,2.10
2019-06-29T07:05:23.525Z,2.40
2019-06-29T07:07:56.544Z,2.10
2019-06-29T07:10:29.692Z,1.83
2019-06-29T07:13:02.869Z,2.20
2019-06-29T07:15:35.893Z,2.10
2019-06-29T07:18:09.084Z,2.20
2019-06-29T07:20:42.188Z,1.90
2019-06-29T07:23:15.298Z,2.00
2019-06-29T07:25:48.335Z,1.73
2019-06-29T07:28:21.639Z,2.30
2019-06-29T07:30:54.700Z,1.80
2019-06-29T07:33:27.739Z,2.30
2019-06-29T07:36:00.797Z,2.00
2019-06-29T07:38:33.816Z,2.10
2019-06-29T07:41:06.954Z,2.07
2019-06-29T07:43:40.120Z,1.87
2019-06-29T07:46:13.184Z,1.80
2019-06-29T07:48:46.448Z,2.10
2019-06-29T07:51:22.819Z,2.03
2019-06-29T07:53:57.793Z,2.30
2019-06-29T07:56:40.735Z,1.90
2019-06-29T07:59:14.264Z,2.30
2019-06-29T08:01:47.729Z,2.13
2019-06-29T08:04:20.839Z,2.37
2019-06-29T08:06:54.333Z,2.37
2019-06-29T08:09:27.448Z,2.10
2019-06-29T08:12:00.683Z,2.50
2019-06-29T08:14:33.948Z,2.40
2019-06-29T08:17:07.008Z,2.20
2019-06-29T08:19:40.380Z,1.83
2019-06-29T08:22:15.550Z,2.23
2019-06-29T08:24:48.849Z,2.50
2019-06-29T08:27:22.504Z,2.50
2019-06-29T08:29:56.310Z,2.67
2019-06-29T08:32:29.299Z,2.53
2019-06-29T08:35:02.350Z,2.40
2019-06-29T08:37:35.426Z,2.63
2019-06-29T08:40:09.214Z,2.77
2019-06-29T08:42:42.415Z,2.60
2019-06-29T08:45:15.708Z,2.33
2019-06-29T08:47:48.702Z,2.53
2019-06-29T08:50:21.858Z,2.53
2019-06-29T08:52:54.929Z,2.87
2019-06-29T08:55:28.145Z,3.33
2019-06-29T08:58:01.399Z,2.90
2019-06-29T09:00:36.366Z,2.87
2019-06-29T09:03:09.573Z,2.77
2019-06-29T09:05:42.747Z,2.87
2019-06-29T09:08:15.772Z,2.30
2019-06-29T09:10:49.029Z,2.77
2019-06-29T09:13:22.188Z,3.03
2019-06-29T09:15:55.257Z,2.57
2019-06-29T09:18:28.697Z,2.40
2019-06-29T09:21:01.777Z,2.50
2019-06-29T09:23:36.109Z,2.40
2019-06-29T09:26:09.342Z,2.40
2019-06-29T09:28:43.137Z,2.40
2019-06-29T09:31:16.771Z,2.80
2019-06-29T09:33:51.844Z,2.50
2019-06-29T09:36:24.418Z,2.57
2019-06-29T09:38:57.603Z,2.50
2019-06-29T09:41:32.105Z,2.60
2019-06-29T09:44:05.330Z,2.30
2019-06-29T09:46:38.659Z,2.70
2019-06-29T09:49:12.643Z,2.90
2019-06-29T09:51:46.093Z,2.60
2019-06-29T09:54:21.377Z,3.37
2019-06-29T09:56:53.754Z,3.00
2019-06-29T09:59:33.198Z,2.97
2019-06-29T10:02:01.557Z,2.50
2019-06-29T10:04:35.592Z,2.53
2019-06-29T10:07:08.764Z,2.63
2019-06-29T10:09:41.716Z,2.80
2019-06-29T10:12:15.072Z,2.60
2019-06-29T10:14:48.312Z,2.87
2019-06-29T10:17:24.200Z,2.57
2019-06-29T10:19:57.721Z,2.37
2019-06-29T10:22:32.570Z,2.70
2019-06-29T10:25:05.163Z,2.60
2019-06-29T10:27:38.190Z,2.47
2019-06-29T10:30:14.992Z,2.73
2019-06-29T10:32:46.181Z,2.90
2019-06-29T10:35:22.229Z,2.40
2019-06-29T10:37:54.158Z,2.50
2019-06-29T10:40:27.247Z,2.60
2019-06-29T10:43:01.191Z,2.33
2019-06-29T10:45:34.523Z,3.20
2019-06-29T10:48:08.129Z,2.80
2019-06-29T10:50:41.742Z,2.63
2019-06-29T10:53:15.144Z,2.60
2019-06-29T10:55:48.128Z,2.57
2019-06-29T10:58:22.244Z,2.90
2019-06-29T11:00:56.117Z,3.10
2019-06-29T11:03:31.676Z,2.93
2019-06-29T11:06:06.630Z,3.10
2019-06-29T11:08:38.567Z,3.33
2019-06-29T11:11:11.959Z,2.63
2019-06-29T11:13:45.235Z,2.90
2019-06-29T11:16:18.222Z,2.67
2019-06-29T11:18:52.276Z,2.50
2019-06-29T11:21:25.840Z,2.40
2019-06-29T11:24:01.247Z,2.90
2019-06-29T11:26:33.958Z,2.40
2019-06-29T11:29:07.356Z,2.80
2019-06-29T11:31:42.585Z,2.60
2019-06-29T11:34:16.093Z,2.63
2019-06-29T11:36:52.144Z,2.60
2019-06-29T11:39:23.747Z,2.47
2019-06-29T11:41:56.917Z,2.33
2019-06-29T11:44:31.297Z,2.70
2019-06-29T11:47:04.389Z,2.70
2019-06-29T11:49:37.499Z,2.77
2019-06-29T11:52:11.277Z,2.90
2019-06-29T11:54:44.716Z,2.77
2019-06-29T11:57:18.137Z,2.87
2019-06-29T11:59:51.179Z,2.80
2019-06-29T12:02:25.553Z,2.97
2019-06-29T12:04:58.773Z,2.90
2019-06-29T12:07:34.241Z,2.53
2019-06-29T12:10:07.941Z,2.80
2019-06-29T12:12:41.243Z,2.80
2019-06-29T12:15:14.911Z,2.70
2019-06-29T12:17:47.856Z,2.60
2019-06-29T12:20:24.538Z,2.60
2019-06-29T12:22:55.550Z,2.50
2019-06-29T12:25:28.543Z,2.80
2019-06-29T12:28:02.413Z,2.40
2019-06-29T12:30:36.567Z,2.47
2019-06-29T12:33:11.804Z,2.77
2019-06-29T12:35:43.889Z,2.83
2019-06-29T12:38:16.878Z,2.37
2019-06-29T12:40:49.864Z,2.60
2019-06-29T12:43:22.759Z,2.50
2019-06-29T12:45:55.729Z,2.63
2019-06-29T12:48:31.409Z,2.37
2019-06-29T12:51:03.262Z,2.47
2019-06-29T12:53:36.234Z,2.70
2019-06-29T12:56:09.458Z,2.43
2019-06-29T12:58:42.362Z,2.40
2019-06-29T13:01:19.926Z,2.23
2019-06-29T13:03:49.986Z,3.10
2019-06-29T13:06:23.252Z,2.33
2019-06-29T13:08:56.235Z,2.30
2019-06-29T13:11:29.149Z,2.43
2019-06-29T13:14:02.076Z,2.57
2019-06-29T13:16:35.072Z,2.10
2019-06-29T13:19:08.461Z,2.53
2019-06-29T13:21:42.107Z,2.33
2019-06-29T13:24:15.549Z,2.20
2019-06-29T13:26:49.097Z,2.40
2019-06-29T13:29:22.469Z,2.57
2019-06-29T13:31:55.525Z,2.60
2019-06-29T13:34:28.469Z,2.57
2019-06-29T13:37:01.509Z,2.90
2019-06-29T13:39:46.669Z,2.37
2019-06-29T13:42:08.891Z,2.53
2019-06-29T13:44:42.134Z,2.53
2019-06-29T13:47:15.127Z,2.50
2019-06-29T13:49:48.225Z,2.80
2019-06-29T13:52:27.433Z,2.80
2019-06-29T13:55:00.353Z,2.33
2019-06-29T13:57:33.290Z,2.40
2019-06-29T14:00:06.666Z,2.73
2019-06-29T14:02:39.774Z,2.77
2019-06-29T14:05:13.667Z,2.40
2019-06-29T14:07:46.658Z,2.33
2019-06-29T14:10:20.072Z,2.70
2019-06-29T14:12:53.200Z,2.40
2019-06-29T14:15:26.151Z,2.50
2019-06-29T14:17:59.056Z,2.40
2019-06-29T14:20:32.111Z,2.57
2019-06-29T14:23:05.862Z,2.70
2019-06-29T14:25:40.056Z,3.20
2019-06-29T14:28:13.059Z,2.87
2019-06-29T14:30:46.655Z,2.83
2019-06-29T14:33:21.449Z,2.77
2019-06-29T14:35:55.500Z,2.47
2019-06-29T14:38:29.237Z,2.77
2019-06-29T14:41:09.594Z,2.80
2019-06-29T14:43:36.680Z,2.57
2019-06-29T14:46:13.592Z,2.80
2019-06-29T14:48:46.535Z,2.67
2019-06-29T14:51:19.992Z,3.07
2019-06-29T14:53:53.903Z,2.47
2019-06-29T14:56:26.797Z,2.57
2019-06-29T14:58:59.811Z,2.50
2019-06-29T15:01:33.215Z,2.23
2019-06-29T15:04:07.383Z,2.30
2019-06-29T15:06:42.971Z,2.27
2019-06-29T15:09:15.938Z,2.23
2019-06-29T15:11:49.163Z,2.30
2019-06-29T15:14:22.168Z,2.13
2019-06-29T15:16:55.186Z,2.63
2019-06-29T15:19:28.179Z,2.17
2019-06-29T15:22:01.198Z,2.27
2019-06-29T15:24:34.353Z,2.20
2019-06-29T15:27:07.443Z,2.07
2019-06-29T15:29:40.527Z,2.20
2019-06-29T15:32:13.573Z,2.07
2019-06-29T15:34:46.601Z,2.00
2019-06-29T15:37:19.758Z,2.13
2019-06-29T15:39:52.960Z,1.63
2019-06-29T15:42:25.946Z,1.77
2019-06-29T15:44:59.606Z,2.03
2019-06-29T15:47:32.673Z,1.70
2019-06-29T15:50:07.974Z,1.63
2019-06-29T15:52:40.961Z,1.87
2019-06-29T15:55:14.509Z,2.47
2019-06-29T15:57:57.035Z,1.60
2019-06-29T16:00:30.400Z,2.10
2019-06-29T16:03:06.245Z,2.80
2019-06-29T16:05:37.722Z,2.00
2019-06-29T16:08:10.829Z,2.10
2019-06-29T16:10:46.881Z,2.13
2019-06-29T16:13:18.216Z,2.10
2019-06-29T16:15:52.185Z,2.00
2019-06-29T16:18:25.982Z,2.00
2019-06-29T16:20:58.993Z,2.27
2019-06-29T16:23:31.953Z,2.23
2019-06-29T16:26:06.041Z,2.00
2019-06-29T16:28:39.359Z,2.20
2019-06-29T16:31:12.394Z,2.10
2019-06-29T16:33:45.577Z,2.00
2019-06-29T16:36:18.790Z,2.10
2019-06-29T16:38:51.822Z,2.00
2019-06-29T16:41:24.839Z,2.20
2019-06-29T16:43:57.927Z,2.00
2019-06-29T16:46:31.232Z,2.30
2019-06-29T16:49:05.304Z,2.27
2019-06-29T16:51:38.367Z,1.90
2019-06-29T16:54:11.369Z,2.13
2019-06-29T16:56:44.773Z,2.27
2019-06-29T16:59:18.109Z,2.10
2019-06-29T17:01:50.987Z,2.60
2019-06-29T17:04:24.006Z,2.40
2019-06-29T17:06:56.968Z,2.40
2019-06-29T17:09:31.046Z,2.20
2019-06-29T17:12:04.833Z,2.30
2019-06-29T17:14:40.720Z,2.07
2019-06-29T17:17:13.618Z,1.97
2019-06-29T17:19:46.539Z,2.00
2019-06-29T17:22:19.960Z,2.23
2019-06-29T17:24:53.298Z,2.00
2019-06-29T17:27:26.376Z,1.90
2019-06-29T17:29:59.385Z,2.20
2019-06-29T17:32:32.443Z,1.60
2019-06-29T17:35:05.443Z,1.90
2019-06-29T17:37:39.009Z,2.23
2019-06-29T17:40:12.398Z,1.90
2019-06-29T17:42:45.992Z,2.07
2019-06-29T17:45:19.250Z,2.10
2019-06-29T17:47:54.082Z,2.30
2019-06-29T17:50:28.501Z,1.80
2019-06-29T17:53:02.123Z,2.03
2019-06-29T17:55:40.839Z,2.03
2019-06-29T17:58:14.196Z,2.20
2019-06-29T18:00:47.430Z,2.17
2019-06-29T18:03:24.048Z,1.93
2019-06-29T18:05:57.419Z,2.10
2019-06-29T18:08:32.793Z,1.80
2019-06-29T18:11:06.410Z,2.30
2019-06-29T18:13:39.584Z,1.60
2019-06-29T18:16:12.749Z,1.63
2019-06-29T18:18:45.813Z,1.87
2019-06-29T18:21:18.917Z,1.73
2019-06-29T18:23:52.040Z,2.00
2019-06-29T18:26:28.938Z,2.00
2019-06-29T18:29:02.900Z,2.10
2019-06-29T18:31:36.088Z,2.13
2019-06-29T18:34:09.085Z,1.87
2019-06-29T18:36:41.988Z,1.80
2019-06-29T18:39:15.001Z,1.90
2019-06-29T18:41:47.948Z,1.67
2019-06-29T18:44:20.875Z,1.80
2019-06-29T18:46:54.084Z,2.03
2019-06-29T18:49:27.015Z,2.20
2019-06-29T18:52:00.060Z,1.67
2019-06-29T18:54:33.050Z,1.80
2019-06-29T18:57:06.025Z,1.80
2019-06-29T18:59:38.921Z,1.90
2019-06-29T19:02:13.337Z,1.67
2019-06-29T19:04:46.373Z,2.00
2019-06-29T19:07:19.555Z,1.90
2019-06-29T19:09:54.379Z,1.97
2019-06-29T19:12:27.692Z,1.80
2019-06-29T19:15:00.775Z,2.27
2019-06-29T19:17:33.752Z,2.00
2019-06-29T19:20:07.015Z,1.87
2019-06-29T19:22:40.103Z,2.00
2019-06-29T19:25:13.271Z,1.90
2019-06-29T19:27:48.169Z,2.13
2019-06-29T19:30:21.577Z,1.70
2019-06-29T19:32:57.315Z,2.00
2019-06-29T19:35:30.431Z,1.90
2019-06-29T19:38:23.014Z,1.87
2019-06-29T19:40:59.518Z,1.60
2019-06-29T19:43:33.283Z,1.40
2019-06-29T19:46:06.594Z,1.60
2019-06-29T19:48:39.553Z,1.37
2019-06-29T19:51:12.713Z,1.50
2019-06-29T19:53:46.814Z,1.47
2019-06-29T19:56:20.717Z,1.40
2019-06-29T19:58:53.712Z,1.60
2019-06-29T20:01:27.085Z,1.77
2019-06-29T20:04:00.209Z,1.80
2019-06-29T20:06:33.494Z,1.43
2019-06-29T20:09:08.418Z,1.47
2019-06-29T20:11:42.123Z,1.60
2019-06-29T20:14:18.818Z,2.07
2019-06-29T20:16:49.827Z,2.27
2019-06-29T20:19:22.725Z,1.40
2019-06-29T20:21:56.585Z,1.70
2019-06-29T20:24:29.650Z,1.30
2019-06-29T20:27:03.153Z,1.40
2019-06-29T20:29:36.056Z,1.70
2019-06-29T20:32:09.257Z,1.53
2019-06-29T20:34:42.223Z,1.67
2019-06-29T20:37:15.161Z,1.70
2019-06-29T20:39:48.115Z,1.40
2019-06-29T20:42:21.333Z,1.50
2019-06-29T20:44:57.892Z,1.60
2019-06-29T20:47:31.066Z,1.60
2019-06-29T20:50:04.439Z,1.73
2019-06-29T20:52:37.454Z,1.50
2019-06-29T20:55:10.942Z,1.93
2019-06-29T20:57:45.633Z,1.77
2019-06-29T21:00:19.577Z,1.60
2019-06-29T21:02:52.719Z,1.77
2019-06-29T21:05:25.772Z,1.80
2019-06-29T21:07:58.682Z,1.57
2019-06-29T21:10:51.784Z,1.60
2019-06-29T21:13:24.902Z,1.53
2019-06-29T21:16:00.819Z,1.63
2019-06-29T21:18:33.922Z,1.60
2019-06-29T21:21:09.834Z,1.60
2019-06-29T21:23:43.690Z,1.50
2019-06-29T21:26:22.295Z,1.70
2019-06-29T21:28:55.367Z,1.47
2019-06-29T21:31:28.425Z,1.57
2019-06-29T21:34:03.164Z,1.60
2019-06-29T21:36:36.662Z,1.33
2019-06-29T21:39:10.345Z,1.30
2019-06-29T21:41:44.529Z,1.60
2019-06-29T21:44:17.658Z,1.60
2019-06-29T21:46:50.828Z,1.77
2019-06-29T21:49:24.521Z,1.50
2019-06-29T21:52:03.177Z,1.50
2019-06-29T21:54:36.195Z,1.40
2019-06-29T21:57:09.605Z,1.53
2019-06-29T21:59:46.505Z,1.50
2019-06-29T22:02:22.124Z,1.37
2019-06-29T22:04:55.807Z,1.40
2019-06-29T22:07:29.280Z,1.27
2019-06-29T22:10:05.051Z,1.40
2019-06-29T22:12:42.199Z,1.27
2019-06-29T22:15:15.614Z,1.40
2019-06-29T22:17:48.862Z,1.40
2019-06-29T22:20:22.547Z,1.30
2019-06-29T22:22:59.573Z,1.33
2019-06-29T22:25:35.719Z,1.30
2019-06-29T22:28:16.039Z,1.60
2019-06-29T22:30:50.062Z,1.50
2019-06-29T22:33:23.286Z,1.50
2019-06-29T22:36:00.031Z,1.40
2019-06-29T22:38:34.999Z,1.40
2019-06-29T22:41:12.115Z,1.40
2019-06-29T22:43:44.086Z,1.30
2019-06-29T22:46:17.620Z,1.20
2019-06-29T22:48:51.956Z,1.43
2019-06-29T22:51:25.265Z,1.43
2019-06-29T22:53:58.535Z,1.50
2019-06-29T22:56:32.529Z,1.60
2019-06-29T22:59:05.570Z,1.57
2019-06-29T23:01:38.708Z,1.37
2019-06-29T23:04:12.059Z,1.47
2019-06-29T23:06:45.289Z,1.50
2019-06-29T23:09:21.531Z,1.50
2019-06-29T23:11:54.816Z,1.40
2019-06-29T23:14:27.920Z,1.33
2019-06-29T23:17:02.463Z,1.37
2019-06-29T23:19:35.457Z,1.13
2019-06-29T23:22:11.203Z,1.60
2019-06-29T23:24:44.810Z,1.50
2019-06-29T23:27:18.427Z,1.40
2019-06-29T23:29:51.800Z,1.20
2019-06-29T23:32:25.778Z,1.30
2019-06-29T23:34:59.167Z,1.20
2019-06-29T23:37:32.233Z,1.30
2019-06-29T23:40:05.803Z,1.40
2019-06-29T23:42:39.548Z,1.30
2019-06-29T23:45:13.118Z,1.23
2019-06-29T23:47:46.361Z,1.60
2019-06-29T23:50:19.863Z,1.43
2019-06-29T23:52:53.065Z,1.27
2019-06-29T23:55:26.359Z,1.47
2019-06-29T23:57:59.597Z,1.20
